sensor_id;sensor_type;location;lat;lon;timestamp;P1;durP1;ratioP1;P2;durP2;ratioP2
2772;SDS011;1394;47.044;15.744;2023-12-07T00:01:57;27.40;;;6.73;;
2772;SDS011;1394;47.044;15.744;2023-12-07T00:04:24;27.57;;;6.70;;
2772;SDS011;1394;47.044;15.744;2023-12-07T00:06:52;28.30;;;7.10;;
2772;SDS011;1394;47.044;15.744;2023-12-07T00:09:20;28.10;;;7.10;;
2772;SDS011;1394;47.044;15.744;2023-12-07T00:11:53;28.10;;;6.87;;
2772;SDS011;1394;47.044;15.744;2023-12-07T00:14:21;28.23;;;7.53;;
2772;SDS011;1394;47.044;15.744;2023-12-07T00:16:48;28.77;;;7.20;;
2772;SDS011;1394;47.044;15.744;2023-12-07T00:19:24;27.43;;;6.63;;
2772;SDS011;1394;47.044;15.744;2023-12-07T00:21:52;28.23;;;7.70;;
2772;SDS011;1394;47.044;15.744;2023-12-07T00:24:21;29.67;;;8.63;;
2772;SDS011;1394;47.044;15.744;2023-12-07T00:26:53;30.57;;;9.57;;
2772;SDS011;1394;47.044;15.744;2023-12-07T00:29:21;30.50;;;8.70;;
2772;SDS011;1394;47.044;15.744;2023-12-07T00:31:50;28.47;;;7.90;;
2772;SDS011;1394;47.044;15.744;2023-12-07T00:34:17;28.70;;;7.60;;
2772;SDS011;1394;47.044;15.744;2023-12-07T00:36:46;29.30;;;7.37;;
2772;SDS011;1394;47.044;15.744;2023-12-07T00:39:14;30.03;;;8.70;;
2772;SDS011;1394;47.044;15.744;2023-12-07T00:46:58;27.37;;;6.63;;
2772;SDS011;1394;47.044;15.744;2023-12-07T00:49:25;27.80;;;7.13;;
2772;SDS011;1394;47.044;15.744;2023-12-07T00:54:35;26.67;;;6.30;;
2772;SDS011;1394;47.044;15.744;2023-12-07T00:57:03;27.63;;;6.67;;
2772;SDS011;1394;47.044;15.744;2023-12-07T00:59:30;27.53;;;6.60;;
2772;SDS011;1394;47.044;15.744;2023-12-07T01:02:02;26.30;;;5.93;;
2772;SDS011;1394;47.044;15.744;2023-12-07T01:04:30;27.67;;;6.60;;
2772;SDS011;1394;47.044;15.744;2023-12-07T01:06:58;27.03;;;6.67;;
2772;SDS011;1394;47.044;15.744;2023-12-07T01:14:54;28.20;;;5.80;;
2772;SDS011;1394;47.044;15.744;2023-12-07T01:17:22;27.60;;;6.93;;
2772;SDS011;1394;47.044;15.744;2023-12-07T01:19:49;26.83;;;5.60;;
2772;SDS011;1394;47.044;15.744;2023-12-07T01:24:53;31.73;;;7.10;;
2772;SDS011;1394;47.044;15.744;2023-12-07T01:27:21;27.27;;;5.67;;
2772;SDS011;1394;47.044;15.744;2023-12-07T01:32:23;32.43;;;6.83;;
2772;SDS011;1394;47.044;15.744;2023-12-07T01:35:00;27.67;;;6.53;;
2772;SDS011;1394;47.044;15.744;2023-12-07T01:37:31;27.20;;;5.40;;
2772;SDS011;1394;47.044;15.744;2023-12-07T01:40:00;30.33;;;6.43;;
2772;SDS011;1394;47.044;15.744;2023-12-07T01:45:06;31.97;;;6.70;;
2772;SDS011;1394;47.044;15.744;2023-12-07T01:47:35;26.17;;;4.93;;
2772;SDS011;1394;47.044;15.744;2023-12-07T01:50:03;30.73;;;6.47;;
2772;SDS011;1394;47.044;15.744;2023-12-07T01:52:32;35.03;;;6.30;;
2772;SDS011;1394;47.044;15.744;2023-12-07T01:54:59;42.03;;;7.53;;
2772;SDS011;1394;47.044;15.744;2023-12-07T01:57:27;34.43;;;6.50;;
2772;SDS011;1394;47.044;15.744;2023-12-07T01:59:55;27.30;;;5.33;;
2772;SDS011;1394;47.044;15.744;2023-12-07T02:02:23;26.20;;;4.60;;
2772;SDS011;1394;47.044;15.744;2023-12-07T02:04:57;26.40;;;5.10;;
2772;SDS011;1394;47.044;15.744;2023-12-07T02:07:24;29.33;;;5.17;;
2772;SDS011;1394;47.044;15.744;2023-12-07T02:09:54;31.87;;;5.30;;
2772;SDS011;1394;47.044;15.744;2023-12-07T02:12:23;32.43;;;5.73;;
2772;SDS011;1394;47.044;15.744;2023-12-07T02:14:50;34.40;;;5.87;;
2772;SDS011;1394;47.044;15.744;2023-12-07T02:19:58;37.00;;;7.47;;
2772;SDS011;1394;47.044;15.744;2023-12-07T02:22:32;46.47;;;9.77;;
2772;SDS011;1394;47.044;15.744;2023-12-07T02:25:04;34.10;;;6.83;;
2772;SDS011;1394;47.044;15.744;2023-12-07T02:27:35;36.37;;;7.20;;
2772;SDS011;1394;47.044;15.744;2023-12-07T02:30:03;29.40;;;5.50;;
2772;SDS011;1394;47.044;15.744;2023-12-07T02:32:32;33.47;;;6.00;;
2772;SDS011;1394;47.044;15.744;2023-12-07T02:35:00;27.57;;;5.03;;
2772;SDS011;1394;47.044;15.744;2023-12-07T02:37:28;32.77;;;5.97;;
2772;SDS011;1394;47.044;15.744;2023-12-07T02:40:00;27.80;;;5.33;;
2772;SDS011;1394;47.044;15.744;2023-12-07T02:42:37;42.93;;;8.00;;
2772;SDS011;1394;47.044;15.744;2023-12-07T02:45:06;31.60;;;5.50;;
2772;SDS011;1394;47.044;15.744;2023-12-07T02:47:34;29.07;;;6.63;;
2772;SDS011;1394;47.044;15.744;2023-12-07T02:50:02;36.03;;;6.77;;
2772;SDS011;1394;47.044;15.744;2023-12-07T02:52:30;31.57;;;6.00;;
2772;SDS011;1394;47.044;15.744;2023-12-07T02:54:58;27.90;;;5.77;;
2772;SDS011;1394;47.044;15.744;2023-12-07T02:57:26;38.03;;;6.90;;
2772;SDS011;1394;47.044;15.744;2023-12-07T02:59:55;28.80;;;6.27;;
2772;SDS011;1394;47.044;15.744;2023-12-07T03:02:28;38.07;;;8.10;;
2772;SDS011;1394;47.044;15.744;2023-12-07T03:04:56;31.23;;;6.60;;
2772;SDS011;1394;47.044;15.744;2023-12-07T03:07:23;30.70;;;6.20;;
2772;SDS011;1394;47.044;15.744;2023-12-07T03:09:53;26.87;;;5.33;;
2772;SDS011;1394;47.044;15.744;2023-12-07T03:12:21;26.63;;;5.20;;
2772;SDS011;1394;47.044;15.744;2023-12-07T03:17:26;25.87;;;5.10;;
2772;SDS011;1394;47.044;15.744;2023-12-07T03:19:54;27.23;;;5.30;;
2772;SDS011;1394;47.044;15.744;2023-12-07T03:24:52;27.00;;;4.83;;
2772;SDS011;1394;47.044;15.744;2023-12-07T03:27:20;27.63;;;5.60;;
2772;SDS011;1394;47.044;15.744;2023-12-07T03:29:48;30.73;;;6.63;;
2772;SDS011;1394;47.044;15.744;2023-12-07T03:35:14;29.53;;;5.20;;
2772;SDS011;1394;47.044;15.744;2023-12-07T03:37:49;31.33;;;4.97;;
2772;SDS011;1394;47.044;15.744;2023-12-07T03:40:17;42.87;;;6.70;;
2772;SDS011;1394;47.044;15.744;2023-12-07T03:42:46;32.67;;;5.23;;
2772;SDS011;1394;47.044;15.744;2023-12-07T03:45:15;29.43;;;4.60;;
2772;SDS011;1394;47.044;15.744;2023-12-07T03:47:44;25.30;;;4.03;;
2772;SDS011;1394;47.044;15.744;2023-12-07T03:50:12;60.50;;;7.20;;
2772;SDS011;1394;47.044;15.744;2023-12-07T03:52:49;26.80;;;4.70;;
2772;SDS011;1394;47.044;15.744;2023-12-07T03:55:16;56.30;;;7.37;;
2772;SDS011;1394;47.044;15.744;2023-12-07T04:00:24;26.00;;;4.40;;
2772;SDS011;1394;47.044;15.744;2023-12-07T04:02:52;25.53;;;4.07;;
2772;SDS011;1394;47.044;15.744;2023-12-07T04:05:20;28.23;;;4.50;;
2772;SDS011;1394;47.044;15.744;2023-12-07T04:07:51;26.23;;;4.40;;
2772;SDS011;1394;47.044;15.744;2023-12-07T04:10:22;26.30;;;4.70;;
2772;SDS011;1394;47.044;15.744;2023-12-07T04:15:23;25.97;;;4.80;;
2772;SDS011;1394;47.044;15.744;2023-12-07T04:17:57;27.10;;;4.60;;
2772;SDS011;1394;47.044;15.744;2023-12-07T04:20:27;26.90;;;5.00;;
2772;SDS011;1394;47.044;15.744;2023-12-07T04:22:58;26.27;;;4.77;;
2772;SDS011;1394;47.044;15.744;2023-12-07T04:28:19;31.27;;;5.93;;
2772;SDS011;1394;47.044;15.744;2023-12-07T04:30:54;26.57;;;4.70;;
2772;SDS011;1394;47.044;15.744;2023-12-07T04:33:24;28.70;;;5.77;;
2772;SDS011;1394;47.044;15.744;2023-12-07T04:36:07;40.13;;;6.70;;
2772;SDS011;1394;47.044;15.744;2023-12-07T04:38:36;66.53;;;9.43;;
2772;SDS011;1394;47.044;15.744;2023-12-07T04:41:06;25.97;;;4.37;;
2772;SDS011;1394;47.044;15.744;2023-12-07T04:43:35;27.20;;;4.73;;
2772;SDS011;1394;47.044;15.744;2023-12-07T04:46:02;27.00;;;5.00;;
2772;SDS011;1394;47.044;15.744;2023-12-07T04:48:32;53.43;;;7.67;;
2772;SDS011;1394;47.044;15.744;2023-12-07T04:51:01;25.73;;;4.30;;
2772;SDS011;1394;47.044;15.744;2023-12-07T04:56:17;26.80;;;4.40;;
2772;SDS011;1394;47.044;15.744;2023-12-07T04:58:45;43.63;;;7.47;;
2772;SDS011;1394;47.044;15.744;2023-12-07T05:01:13;25.20;;;4.27;;
2772;SDS011;1394;47.044;15.744;2023-12-07T05:03:45;31.47;;;5.60;;
2772;SDS011;1394;47.044;15.744;2023-12-07T05:06:20;26.80;;;4.70;;
2772;SDS011;1394;47.044;15.744;2023-12-07T05:08:48;42.73;;;7.17;;
2772;SDS011;1394;47.044;15.744;2023-12-07T05:11:18;27.83;;;5.87;;
2772;SDS011;1394;47.044;15.744;2023-12-07T05:13:46;30.37;;;6.00;;
2772;SDS011;1394;47.044;15.744;2023-12-07T05:18:57;32.63;;;6.40;;
2772;SDS011;1394;47.044;15.744;2023-12-07T05:21:28;30.23;;;6.07;;
2772;SDS011;1394;47.044;15.744;2023-12-07T05:23:56;28.17;;;5.40;;
2772;SDS011;1394;47.044;15.744;2023-12-07T05:26:26;34.70;;;6.87;;
2772;SDS011;1394;47.044;15.744;2023-12-07T05:28:54;30.97;;;7.13;;
2772;SDS011;1394;47.044;15.744;2023-12-07T05:31:22;26.80;;;4.77;;
2772;SDS011;1394;47.044;15.744;2023-12-07T05:33:55;27.10;;;5.63;;
2772;SDS011;1394;47.044;15.744;2023-12-07T05:36:23;27.57;;;5.40;;
2772;SDS011;1394;47.044;15.744;2023-12-07T05:38:52;28.60;;;6.70;;
2772;SDS011;1394;47.044;15.744;2023-12-07T05:41:20;28.30;;;6.17;;
2772;SDS011;1394;47.044;15.744;2023-12-07T05:43:48;29.07;;;6.57;;
2772;SDS011;1394;47.044;15.744;2023-12-07T05:46:16;28.80;;;6.63;;
2772;SDS011;1394;47.044;15.744;2023-12-07T05:48:43;31.40;;;6.57;;
2772;SDS011;1394;47.044;15.744;2023-12-07T05:51:12;59.83;;;11.10;;
2772;SDS011;1394;47.044;15.744;2023-12-07T05:53:40;40.97;;;9.10;;
2772;SDS011;1394;47.044;15.744;2023-12-07T05:56:08;31.60;;;6.70;;
2772;SDS011;1394;47.044;15.744;2023-12-07T05:58:35;36.43;;;8.90;;
2772;SDS011;1394;47.044;15.744;2023-12-07T06:01:06;31.20;;;6.90;;
2772;SDS011;1394;47.044;15.744;2023-12-07T06:03:34;28.60;;;6.97;;
2772;SDS011;1394;47.044;15.744;2023-12-07T06:06:03;28.60;;;6.17;;
2772;SDS011;1394;47.044;15.744;2023-12-07T06:08:32;27.70;;;6.27;;
2772;SDS011;1394;47.044;15.744;2023-12-07T06:10:59;26.43;;;5.87;;
2772;SDS011;1394;47.044;15.744;2023-12-07T06:13:27;26.50;;;5.30;;
2772;SDS011;1394;47.044;15.744;2023-12-07T06:15:54;26.97;;;5.30;;
2772;SDS011;1394;47.044;15.744;2023-12-07T06:18:24;26.50;;;5.53;;
2772;SDS011;1394;47.044;15.744;2023-12-07T06:20:51;26.10;;;5.83;;
2772;SDS011;1394;47.044;15.744;2023-12-07T06:23:18;27.27;;;6.40;;
2772;SDS011;1394;47.044;15.744;2023-12-07T06:25:45;26.80;;;5.60;;
2772;SDS011;1394;47.044;15.744;2023-12-07T06:28:13;25.60;;;4.80;;
2772;SDS011;1394;47.044;15.744;2023-12-07T06:30:40;26.20;;;4.80;;
2772;SDS011;1394;47.044;15.744;2023-12-07T06:33:08;26.10;;;4.60;;
2772;SDS011;1394;47.044;15.744;2023-12-07T06:35:36;26.17;;;5.13;;
2772;SDS011;1394;47.044;15.744;2023-12-07T06:38:04;26.10;;;5.10;;
2772;SDS011;1394;47.044;15.744;2023-12-07T06:40:34;26.07;;;4.63;;
2772;SDS011;1394;47.044;15.744;2023-12-07T06:43:02;25.57;;;4.47;;
2772;SDS011;1394;47.044;15.744;2023-12-07T06:45:29;25.40;;;4.50;;
2772;SDS011;1394;47.044;15.744;2023-12-07T06:47:56;25.53;;;3.93;;
2772;SDS011;1394;47.044;15.744;2023-12-07T06:50:24;25.33;;;3.87;;
2772;SDS011;1394;47.044;15.744;2023-12-07T06:52:53;25.50;;;4.10;;
2772;SDS011;1394;47.044;15.744;2023-12-07T06:55:20;25.70;;;4.50;;
2772;SDS011;1394;47.044;15.744;2023-12-07T06:57:48;25.87;;;4.67;;
2772;SDS011;1394;47.044;15.744;2023-12-07T07:00:16;26.67;;;5.23;;
2772;SDS011;1394;47.044;15.744;2023-12-07T07:02:46;26.63;;;5.10;;
2772;SDS011;1394;47.044;15.744;2023-12-07T07:05:13;27.33;;;4.80;;
2772;SDS011;1394;47.044;15.744;2023-12-07T07:07:42;26.60;;;4.80;;
2772;SDS011;1394;47.044;15.744;2023-12-07T07:10:11;25.70;;;4.50;;
2772;SDS011;1394;47.044;15.744;2023-12-07T07:12:39;25.07;;;3.63;;
2772;SDS011;1394;47.044;15.744;2023-12-07T07:15:07;24.97;;;3.87;;
2772;SDS011;1394;47.044;15.744;2023-12-07T07:17:35;25.10;;;3.60;;
2772;SDS011;1394;47.044;15.744;2023-12-07T07:20:04;25.00;;;3.67;;
2772;SDS011;1394;47.044;15.744;2023-12-07T07:22:31;24.70;;;3.50;;
2772;SDS011;1394;47.044;15.744;2023-12-07T07:24:59;26.23;;;3.80;;
2772;SDS011;1394;47.044;15.744;2023-12-07T07:27:28;26.90;;;4.47;;
2772;SDS011;1394;47.044;15.744;2023-12-07T07:29:56;25.37;;;4.10;;
2772;SDS011;1394;47.044;15.744;2023-12-07T07:32:23;24.97;;;3.63;;
2772;SDS011;1394;47.044;15.744;2023-12-07T07:34:51;25.47;;;3.80;;
2772;SDS011;1394;47.044;15.744;2023-12-07T07:37:19;24.80;;;3.23;;
2772;SDS011;1394;47.044;15.744;2023-12-07T07:39:46;26.00;;;4.20;;
2772;SDS011;1394;47.044;15.744;2023-12-07T07:42:13;25.27;;;4.03;;
2772;SDS011;1394;47.044;15.744;2023-12-07T07:44:44;25.30;;;4.30;;
2772;SDS011;1394;47.044;15.744;2023-12-07T07:47:13;25.00;;;3.90;;
2772;SDS011;1394;47.044;15.744;2023-12-07T07:49:40;25.30;;;3.67;;
2772;SDS011;1394;47.044;15.744;2023-12-07T07:52:07;24.77;;;4.10;;
2772;SDS011;1394;47.044;15.744;2023-12-07T07:54:34;24.97;;;3.50;;
2772;SDS011;1394;47.044;15.744;2023-12-07T07:57:03;25.70;;;3.83;;
2772;SDS011;1394;47.044;15.744;2023-12-07T07:59:30;25.23;;;3.60;;
2772;SDS011;1394;47.044;15.744;2023-12-07T08:01:59;25.80;;;3.87;;
2772;SDS011;1394;47.044;15.744;2023-12-07T08:04:27;24.83;;;3.20;;
2772;SDS011;1394;47.044;15.744;2023-12-07T08:06:54;24.97;;;3.10;;
2772;SDS011;1394;47.044;15.744;2023-12-07T08:09:22;24.47;;;3.10;;
2772;SDS011;1394;47.044;15.744;2023-12-07T08:11:49;25.80;;;3.87;;
2772;SDS011;1394;47.044;15.744;2023-12-07T08:14:18;25.00;;;4.00;;
2772;SDS011;1394;47.044;15.744;2023-12-07T08:16:45;25.27;;;4.10;;
2772;SDS011;1394;47.044;15.744;2023-12-07T08:19:15;26.80;;;4.40;;
2772;SDS011;1394;47.044;15.744;2023-12-07T08:21:42;26.43;;;4.23;;
2772;SDS011;1394;47.044;15.744;2023-12-07T08:24:09;26.00;;;4.60;;
2772;SDS011;1394;47.044;15.744;2023-12-07T08:26:38;25.50;;;4.40;;
2772;SDS011;1394;47.044;15.744;2023-12-07T08:29:07;26.03;;;4.00;;
2772;SDS011;1394;47.044;15.744;2023-12-07T08:31:34;25.20;;;3.77;;
2772;SDS011;1394;47.044;15.744;2023-12-07T08:34:02;25.77;;;4.00;;
2772;SDS011;1394;47.044;15.744;2023-12-07T08:36:30;25.90;;;4.07;;
2772;SDS011;1394;47.044;15.744;2023-12-07T08:38:59;26.00;;;4.33;;
2772;SDS011;1394;47.044;15.744;2023-12-07T08:41:27;25.23;;;3.50;;
2772;SDS011;1394;47.044;15.744;2023-12-07T08:43:54;25.47;;;3.80;;
2772;SDS011;1394;47.044;15.744;2023-12-07T08:46:24;25.03;;;3.47;;
2772;SDS011;1394;47.044;15.744;2023-12-07T08:48:53;27.10;;;3.30;;
2772;SDS011;1394;47.044;15.744;2023-12-07T08:51:21;26.70;;;3.57;;
2772;SDS011;1394;47.044;15.744;2023-12-07T08:53:50;25.07;;;3.50;;
2772;SDS011;1394;47.044;15.744;2023-12-07T08:56:17;25.50;;;3.33;;
2772;SDS011;1394;47.044;15.744;2023-12-07T08:58:45;24.90;;;3.13;;
2772;SDS011;1394;47.044;15.744;2023-12-07T09:01:14;25.90;;;3.83;;
2772;SDS011;1394;47.044;15.744;2023-12-07T09:03:41;27.20;;;4.60;;
2772;SDS011;1394;47.044;15.744;2023-12-07T09:06:08;25.77;;;4.20;;
2772;SDS011;1394;47.044;15.744;2023-12-07T09:08:35;24.90;;;3.70;;
2772;SDS011;1394;47.044;15.744;2023-12-07T09:11:05;25.70;;;3.53;;
2772;SDS011;1394;47.044;15.744;2023-12-07T09:13:35;25.40;;;3.40;;
2772;SDS011;1394;47.044;15.744;2023-12-07T09:16:05;25.53;;;3.60;;
2772;SDS011;1394;47.044;15.744;2023-12-07T09:18:34;27.77;;;4.00;;
2772;SDS011;1394;47.044;15.744;2023-12-07T09:21:01;25.00;;;4.00;;
2772;SDS011;1394;47.044;15.744;2023-12-07T09:23:28;24.60;;;3.10;;
2772;SDS011;1394;47.044;15.744;2023-12-07T09:25:55;24.80;;;2.97;;
2772;SDS011;1394;47.044;15.744;2023-12-07T09:28:25;25.40;;;3.60;;
2772;SDS011;1394;47.044;15.744;2023-12-07T09:30:54;24.90;;;3.20;;
2772;SDS011;1394;47.044;15.744;2023-12-07T09:33:22;25.27;;;3.33;;
2772;SDS011;1394;47.044;15.744;2023-12-07T09:35:49;24.80;;;3.37;;
2772;SDS011;1394;47.044;15.744;2023-12-07T09:38:16;25.07;;;3.10;;
2772;SDS011;1394;47.044;15.744;2023-12-07T09:40:45;24.93;;;3.47;;
2772;SDS011;1394;47.044;15.744;2023-12-07T09:43:14;25.67;;;2.60;;
2772;SDS011;1394;47.044;15.744;2023-12-07T09:45:45;24.93;;;3.23;;
2772;SDS011;1394;47.044;15.744;2023-12-07T09:48:15;24.93;;;3.47;;
2772;SDS011;1394;47.044;15.744;2023-12-07T09:50:44;25.00;;;3.30;;
2772;SDS011;1394;47.044;15.744;2023-12-07T09:53:11;25.33;;;3.30;;
2772;SDS011;1394;47.044;15.744;2023-12-07T09:55:38;24.80;;;2.93;;
2772;SDS011;1394;47.044;15.744;2023-12-07T09:58:06;24.80;;;2.83;;
2772;SDS011;1394;47.044;15.744;2023-12-07T10:00:36;24.70;;;3.30;;
2772;SDS011;1394;47.044;15.744;2023-12-07T10:03:05;25.07;;;3.27;;
2772;SDS011;1394;47.044;15.744;2023-12-07T10:05:53;25.20;;;3.53;;
2772;SDS011;1394;47.044;15.744;2023-12-07T10:08:27;25.07;;;3.20;;
2772;SDS011;1394;47.044;15.744;2023-12-07T10:11:07;24.73;;;2.90;;
2772;SDS011;1394;47.044;15.744;2023-12-07T10:13:54;24.90;;;2.83;;
2772;SDS011;1394;47.044;15.744;2023-12-07T10:16:21;25.13;;;3.17;;
2772;SDS011;1394;47.044;15.744;2023-12-07T10:18:50;24.90;;;3.37;;
2772;SDS011;1394;47.044;15.744;2023-12-07T10:21:18;25.40;;;2.90;;
2772;SDS011;1394;47.044;15.744;2023-12-07T10:23:59;24.60;;;2.97;;
2772;SDS011;1394;47.044;15.744;2023-12-07T10:26:29;25.07;;;3.10;;
2772;SDS011;1394;47.044;15.744;2023-12-07T10:28:57;24.50;;;3.00;;
2772;SDS011;1394;47.044;15.744;2023-12-07T10:31:31;24.70;;;3.00;;
2772;SDS011;1394;47.044;15.744;2023-12-07T10:34:01;24.07;;;2.60;;
2772;SDS011;1394;47.044;15.744;2023-12-07T10:36:29;24.37;;;2.07;;
2772;SDS011;1394;47.044;15.744;2023-12-07T10:38:57;23.57;;;2.20;;
2772;SDS011;1394;47.044;15.744;2023-12-07T10:41:25;23.60;;;1.83;;
2772;SDS011;1394;47.044;15.744;2023-12-07T10:43:53;23.53;;;2.10;;
2772;SDS011;1394;47.044;15.744;2023-12-07T10:46:21;23.83;;;2.17;;
2772;SDS011;1394;47.044;15.744;2023-12-07T10:48:50;23.90;;;2.27;;
2772;SDS011;1394;47.044;15.744;2023-12-07T10:51:23;23.77;;;1.83;;
2772;SDS011;1394;47.044;15.744;2023-12-07T10:53:54;23.53;;;1.63;;
2772;SDS011;1394;47.044;15.744;2023-12-07T10:56:28;23.87;;;1.43;;
2772;SDS011;1394;47.044;15.744;2023-12-07T10:58:56;23.70;;;1.27;;
2772;SDS011;1394;47.044;15.744;2023-12-07T11:01:26;23.40;;;0.90;;
2772;SDS011;1394;47.044;15.744;2023-12-07T11:03:54;23.50;;;1.20;;
2772;SDS011;1394;47.044;15.744;2023-12-07T11:06:24;23.90;;;1.60;;
2772;SDS011;1394;47.044;15.744;2023-12-07T11:08:51;24.17;;;2.10;;
2772;SDS011;1394;47.044;15.744;2023-12-07T11:11:22;23.63;;;1.47;;
2772;SDS011;1394;47.044;15.744;2023-12-07T11:13:52;23.30;;;1.30;;
2772;SDS011;1394;47.044;15.744;2023-12-07T11:16:28;23.40;;;1.00;;
2772;SDS011;1394;47.044;15.744;2023-12-07T11:18:56;23.40;;;1.20;;
2772;SDS011;1394;47.044;15.744;2023-12-07T11:21:26;23.60;;;1.50;;
2772;SDS011;1394;47.044;15.744;2023-12-07T11:23:53;24.13;;;1.90;;
2772;SDS011;1394;47.044;15.744;2023-12-07T11:26:22;23.30;;;1.23;;
2772;SDS011;1394;47.044;15.744;2023-12-07T11:28:50;23.67;;;1.20;;
2772;SDS011;1394;47.044;15.744;2023-12-07T11:31:17;24.07;;;1.50;;
2772;SDS011;1394;47.044;15.744;2023-12-07T11:33:46;24.60;;;1.73;;
2772;SDS011;1394;47.044;15.744;2023-12-07T11:36:16;24.20;;;1.70;;
2772;SDS011;1394;47.044;15.744;2023-12-07T11:41:31;24.10;;;1.90;;
2772;SDS011;1394;47.044;15.744;2023-12-07T11:44:00;23.47;;;1.23;;
2772;SDS011;1394;47.044;15.744;2023-12-07T11:46:28;23.67;;;1.40;;
2772;SDS011;1394;47.044;15.744;2023-12-07T11:48:55;24.43;;;2.33;;
2772;SDS011;1394;47.044;15.744;2023-12-07T11:51:23;23.60;;;1.50;;
2772;SDS011;1394;47.044;15.744;2023-12-07T11:53:51;23.40;;;1.20;;
2772;SDS011;1394;47.044;15.744;2023-12-07T11:56:19;23.07;;;0.80;;
2772;SDS011;1394;47.044;15.744;2023-12-07T11:58:48;24.73;;;2.47;;
2772;SDS011;1394;47.044;15.744;2023-12-07T12:01:17;24.20;;;2.07;;
2772;SDS011;1394;47.044;15.744;2023-12-07T12:03:53;24.30;;;2.13;;
2772;SDS011;1394;47.044;15.744;2023-12-07T12:06:23;24.13;;;2.10;;
2772;SDS011;1394;47.044;15.744;2023-12-07T12:08:55;23.90;;;1.80;;
2772;SDS011;1394;47.044;15.744;2023-12-07T12:11:22;24.63;;;2.30;;
2772;SDS011;1394;47.044;15.744;2023-12-07T12:13:51;25.10;;;2.93;;
2772;SDS011;1394;47.044;15.744;2023-12-07T12:16:19;24.93;;;2.57;;
2772;SDS011;1394;47.044;15.744;2023-12-07T12:18:48;24.47;;;2.40;;
2772;SDS011;1394;47.044;15.744;2023-12-07T12:21:17;24.37;;;2.37;;
2772;SDS011;1394;47.044;15.744;2023-12-07T12:23:47;25.83;;;3.47;;
2772;SDS011;1394;47.044;15.744;2023-12-07T12:26:17;23.80;;;1.93;;
2772;SDS011;1394;47.044;15.744;2023-12-07T12:28:45;23.70;;;1.70;;
2772;SDS011;1394;47.044;15.744;2023-12-07T12:31:14;23.60;;;1.67;;
2772;SDS011;1394;47.044;15.744;2023-12-07T12:33:41;23.20;;;1.00;;
2772;SDS011;1394;47.044;15.744;2023-12-07T12:36:08;23.30;;;0.97;;
2772;SDS011;1394;47.044;15.744;2023-12-07T12:38:37;23.40;;;1.20;;
2772;SDS011;1394;47.044;15.744;2023-12-07T12:41:05;23.50;;;1.30;;
2772;SDS011;1394;47.044;15.744;2023-12-07T12:43:33;23.03;;;1.00;;
2772;SDS011;1394;47.044;15.744;2023-12-07T12:46:01;22.70;;;1.00;;
2772;SDS011;1394;47.044;15.744;2023-12-07T12:48:32;23.17;;;1.10;;
2772;SDS011;1394;47.044;15.744;2023-12-07T12:51:06;22.90;;;1.00;;
2772;SDS011;1394;47.044;15.744;2023-12-07T12:53:34;23.17;;;1.03;;
2772;SDS011;1394;47.044;15.744;2023-12-07T12:56:02;23.13;;;1.00;;
2772;SDS011;1394;47.044;15.744;2023-12-07T12:58:30;23.23;;;1.10;;
2772;SDS011;1394;47.044;15.744;2023-12-07T13:00:57;23.30;;;1.00;;
2772;SDS011;1394;47.044;15.744;2023-12-07T13:03:32;23.40;;;1.20;;
2772;SDS011;1394;47.044;15.744;2023-12-07T13:05:59;23.20;;;1.10;;
2772;SDS011;1394;47.044;15.744;2023-12-07T13:08:28;23.00;;;1.10;;
2772;SDS011;1394;47.044;15.744;2023-12-07T13:10:58;22.70;;;1.03;;
2772;SDS011;1394;47.044;15.744;2023-12-07T13:13:27;23.00;;;1.10;;
2772;SDS011;1394;47.044;15.744;2023-12-07T13:15:57;23.20;;;1.20;;
2772;SDS011;1394;47.044;15.744;2023-12-07T13:18:25;23.40;;;1.30;;
2772;SDS011;1394;47.044;15.744;2023-12-07T13:20:54;23.10;;;1.40;;
2772;SDS011;1394;47.044;15.744;2023-12-07T13:23:22;23.27;;;1.23;;
2772;SDS011;1394;47.044;15.744;2023-12-07T13:25:51;23.10;;;1.00;;
2772;SDS011;1394;47.044;15.744;2023-12-07T13:28:19;23.73;;;2.13;;
2772;SDS011;1394;47.044;15.744;2023-12-07T13:30:49;23.60;;;1.30;;
2772;SDS011;1394;47.044;15.744;2023-12-07T13:33:19;23.23;;;1.20;;
2772;SDS011;1394;47.044;15.744;2023-12-07T13:35:48;23.40;;;1.70;;
2772;SDS011;1394;47.044;15.744;2023-12-07T13:38:21;23.83;;;1.80;;
2772;SDS011;1394;47.044;15.744;2023-12-07T13:40:48;23.83;;;1.73;;
2772;SDS011;1394;47.044;15.744;2023-12-07T13:43:16;24.00;;;1.63;;
2772;SDS011;1394;47.044;15.744;2023-12-07T13:45:43;24.23;;;2.40;;
2772;SDS011;1394;47.044;15.744;2023-12-07T13:48:11;24.70;;;3.03;;
2772;SDS011;1394;47.044;15.744;2023-12-07T13:50:38;26.30;;;4.10;;
2772;SDS011;1394;47.044;15.744;2023-12-07T13:53:08;23.70;;;2.83;;
2772;SDS011;1394;47.044;15.744;2023-12-07T13:55:40;24.97;;;3.23;;
2772;SDS011;1394;47.044;15.744;2023-12-07T13:58:07;26.40;;;4.83;;
2772;SDS011;1394;47.044;15.744;2023-12-07T14:00:35;28.90;;;8.07;;
2772;SDS011;1394;47.044;15.744;2023-12-07T14:03:03;27.63;;;5.70;;
2772;SDS011;1394;47.044;15.744;2023-12-07T14:05:31;24.90;;;3.00;;
2772;SDS011;1394;47.044;15.744;2023-12-07T14:07:58;24.80;;;2.80;;
2772;SDS011;1394;47.044;15.744;2023-12-07T14:10:25;24.87;;;3.20;;
2772;SDS011;1394;47.044;15.744;2023-12-07T14:12:54;26.03;;;3.30;;
2772;SDS011;1394;47.044;15.744;2023-12-07T14:15:23;24.97;;;2.90;;
2772;SDS011;1394;47.044;15.744;2023-12-07T14:17:50;24.03;;;2.20;;
2772;SDS011;1394;47.044;15.744;2023-12-07T14:20:18;24.67;;;2.70;;
2772;SDS011;1394;47.044;15.744;2023-12-07T14:22:49;24.97;;;3.00;;
2772;SDS011;1394;47.044;15.744;2023-12-07T14:25:16;25.47;;;3.60;;
2772;SDS011;1394;47.044;15.744;2023-12-07T14:27:44;26.47;;;3.80;;
2772;SDS011;1394;47.044;15.744;2023-12-07T14:30:14;25.27;;;3.50;;
2772;SDS011;1394;47.044;15.744;2023-12-07T14:32:41;25.13;;;3.47;;
2772;SDS011;1394;47.044;15.744;2023-12-07T14:35:13;24.70;;;3.20;;
2772;SDS011;1394;47.044;15.744;2023-12-07T14:37:41;24.97;;;3.20;;
2772;SDS011;1394;47.044;15.744;2023-12-07T14:40:08;25.07;;;3.33;;
2772;SDS011;1394;47.044;15.744;2023-12-07T14:42:36;24.67;;;3.30;;
2772;SDS011;1394;47.044;15.744;2023-12-07T14:45:04;24.57;;;3.23;;
2772;SDS011;1394;47.044;15.744;2023-12-07T14:47:33;24.90;;;2.77;;
2772;SDS011;1394;47.044;15.744;2023-12-07T14:50:00;24.33;;;2.40;;
2772;SDS011;1394;47.044;15.744;2023-12-07T14:52:28;24.10;;;2.50;;
2772;SDS011;1394;47.044;15.744;2023-12-07T14:54:55;23.90;;;2.00;;
2772;SDS011;1394;47.044;15.744;2023-12-07T14:57:22;23.83;;;2.30;;
2772;SDS011;1394;47.044;15.744;2023-12-07T14:59:49;24.20;;;1.63;;
2772;SDS011;1394;47.044;15.744;2023-12-07T15:02:18;23.70;;;2.07;;
2772;SDS011;1394;47.044;15.744;2023-12-07T15:04:47;24.03;;;2.30;;
2772;SDS011;1394;47.044;15.744;2023-12-07T15:07:14;24.63;;;1.73;;
2772;SDS011;1394;47.044;15.744;2023-12-07T15:09:42;23.50;;;1.93;;
2772;SDS011;1394;47.044;15.744;2023-12-07T15:12:12;23.43;;;1.53;;
2772;SDS011;1394;47.044;15.744;2023-12-07T15:14:40;23.50;;;1.70;;
2772;SDS011;1394;47.044;15.744;2023-12-07T15:17:09;23.50;;;1.70;;
2772;SDS011;1394;47.044;15.744;2023-12-07T15:19:38;23.80;;;1.70;;
2772;SDS011;1394;47.044;15.744;2023-12-07T15:22:07;31.97;;;9.30;;
2772;SDS011;1394;47.044;15.744;2023-12-07T15:24:34;30.07;;;7.83;;
2772;SDS011;1394;47.044;15.744;2023-12-07T15:27:03;26.03;;;4.20;;
2772;SDS011;1394;47.044;15.744;2023-12-07T15:29:30;25.77;;;3.50;;
2772;SDS011;1394;47.044;15.744;2023-12-07T15:32:00;26.03;;;3.73;;
2772;SDS011;1394;47.044;15.744;2023-12-07T15:34:34;25.73;;;3.30;;
2772;SDS011;1394;47.044;15.744;2023-12-07T15:37:02;25.30;;;2.50;;
2772;SDS011;1394;47.044;15.744;2023-12-07T15:39:31;24.20;;;1.90;;
2772;SDS011;1394;47.044;15.744;2023-12-07T15:42:01;24.27;;;2.27;;
2772;SDS011;1394;47.044;15.744;2023-12-07T15:44:29;24.30;;;2.30;;
2772;SDS011;1394;47.044;15.744;2023-12-07T15:46:59;25.17;;;3.00;;